Fort Myers Beach, Florida
Current Conditions -  °F | °C
As of 4:53 AM on Saturday 29 Nov 2014 (Local Time) from KFMY Reporting Station
Clear Clear  
Wind Chill: 50°   Ceiling: Unl
Heat Index: 50°   Visibility: 10mi
Dew Point: 45°   Wind: 7mph
Humidity: 83%   Direction: 30°NNE
Pressure: 30.22"   Gusts: NA
Location:  26.45°N, 81.94°W
Report Text: KFMY 290953Z AUTO 03006KT 10SM CLR 10/07 A3022 RMK AO2 SLP235 T01000072
Loading
Personal Weather Stations






























Interactive Weather Map New forecast layout! Learn more

10-Day Weather Forecast

Advertisements
Track Severe Weather on mobile